Time;durP1;ratioP1;P1;durP2;ratioP2;P2;SDS_P1;SDS_P2;PMS_P1;PMS_P2;Temp;Humidity;BMP_temperature;BMP_pressure;BME280_temperature;BME280_humidity;BME280_pressure;Samples;Min_cycle;Max_cycle;Signal;HPM_P1;HPM_P2
2021/07/22 00:00:27;;;;;;;16.35;10.70;;;;;;;;;;5019857;28;20560;-45
2021/07/22 00:02:53;;;;;;;15.20;9.43;;;;;;;;;;5019759;28;20334;-46
2021/07/22 00:05:20;;;;;;;11.80;8.98;;;;;;;;;;5020031;28;20038;-45
2021/07/22 00:07:46;;;;;;;24.48;16.70;;;;;;;;;;5019575;28;20087;-45
2021/07/22 00:10:13;;;;;;;43.20;29.98;;;;;;;;;;5019986;28;20070;-45
2021/07/22 00:12:39;;;;;;;35.85;23.23;;;;;;;;;;5019804;28;20061;-46
2021/07/22 00:15:06;;;;;;;23.83;14.05;;;;;;;;;;5019043;28;20052;-45
2021/07/22 00:17:32;;;;;;;20.55;12.70;;;;;;;;;;5019131;28;20117;-45
2021/07/22 00:20:00;;;;;;;14.82;9.88;;;;;;;;;;5030414;28;20036;-46
2021/07/22 00:22:27;;;;;;;18.80;12.00;;;;;;;;;;5054593;28;20036;-45
2021/07/22 00:24:53;;;;;;;27.63;18.67;;;;;;;;;;5054987;28;20488;-46
2021/07/22 00:27:19;;;;;;;29.23;20.45;;;;;;;;;;5054562;28;20092;-46
2021/07/22 00:29:45;;;;;;;50.97;32.47;;;;;;;;;;5054364;28;20102;-45
2021/07/22 00:32:11;;;;;;;45.13;30.80;;;;;;;;;;5054298;28;20473;-46
2021/07/22 00:34:37;;;;;;;30.35;17.08;;;;;;;;;;5054630;28;20025;-46
2021/07/22 00:37:04;;;;;;;39.35;21.20;;;;;;;;;;5054244;28;20514;-46
2021/07/22 00:39:30;;;;;;;29.90;17.38;;;;;;;;;;5054086;28;20037;-46
2021/07/22 00:41:56;;;;;;;29.75;17.92;;;;;;;;;;5054197;28;20079;-46
2021/07/22 00:44:22;;;;;;;30.98;15.73;;;;;;;;;;5054144;28;20029;-45
2021/07/22 00:46:48;;;;;;;45.53;29.48;;;;;;;;;;5054187;28;20500;-47
2021/07/22 00:49:15;;;;;;;30.60;18.42;;;;;;;;;;5054177;28;20033;-45
2021/07/22 00:51:41;;;;;;;30.80;18.27;;;;;;;;;;5054005;28;20029;-46
2021/07/22 00:54:07;;;;;;;26.60;16.13;;;;;;;;;;5054205;28;20029;-46
2021/07/22 00:56:34;;;;;;;37.92;21.55;;;;;;;;;;5053791;28;20029;-45
2021/07/22 00:59:01;;;;;;;48.95;26.48;;;;;;;;;;5053921;28;20434;-46
2021/07/22 01:01:27;;;;;;;63.20;28.65;;;;;;;;;;5053933;28;20052;-45
2021/07/22 01:03:53;;;;;;;80.47;33.83;;;;;;;;;;5053934;28;20029;-46
2021/07/22 01:06:19;;;;;;;97.68;44.95;;;;;;;;;;5053824;28;20445;-47
2021/07/22 01:08:46;;;;;;;96.05;44.22;;;;;;;;;;5053847;28;20067;-45
2021/07/22 01:11:12;;;;;;;74.05;42.55;;;;;;;;;;5053752;28;20021;-45
2021/07/22 01:13:38;;;;;;;52.05;29.85;;;;;;;;;;5053629;28;20393;-45
2021/07/22 01:16:04;;;;;;;46.40;28.83;;;;;;;;;;5053218;28;20045;-44
2021/07/22 01:18:30;;;;;;;36.33;23.83;;;;;;;;;;5053567;28;20481;-44
2021/07/22 01:20:56;;;;;;;34.75;22.48;;;;;;;;;;5053723;28;20032;-47
2021/07/22 01:23:22;;;;;;;38.38;17.95;;;;;;;;;;5053766;28;20074;-45
2021/07/22 01:25:48;;;;;;;41.40;26.60;;;;;;;;;;5053799;28;20032;-47
2021/07/22 01:28:14;;;;;;;61.88;35.05;;;;;;;;;;5053523;28;20021;-44
2021/07/22 01:30:41;;;;;;;35.17;21.98;;;;;;;;;;5053587;28;20158;-45
2021/07/22 01:33:07;;;;;;;31.38;17.17;;;;;;;;;;5053581;28;20408;-45
2021/07/22 01:35:33;;;;;;;32.05;18.90;;;;;;;;;;5053411;28;20032;-46
2021/07/22 01:37:59;;;;;;;27.08;15.75;;;;;;;;;;5053747;28;20498;-46
2021/07/22 01:40:25;;;;;;;24.90;14.23;;;;;;;;;;5053367;28;20373;-47
2021/07/22 01:42:51;;;;;;;23.63;13.10;;;;;;;;;;5053252;28;20159;-47
2021/07/22 01:45:17;;;;;;;24.77;13.35;;;;;;;;;;5053209;28;20033;-46
2021/07/22 01:47:43;;;;;;;23.27;13.00;;;;;;;;;;5053254;28;20021;-46
2021/07/22 01:50:10;;;;;;;20.52;11.85;;;;;;;;;;5053182;28;20385;-48
2021/07/22 01:52:36;;;;;;;22.02;11.90;;;;;;;;;;5053122;28;20024;-48
2021/07/22 01:55:02;;;;;;;21.08;10.68;;;;;;;;;;5053288;28;20025;-46
2021/07/22 01:57:28;;;;;;;20.50;10.65;;;;;;;;;;5053243;28;20036;-47
2021/07/22 02:00:01;;;;;;;19.20;11.50;;;;;;;;;;5052998;28;20044;-46
2021/07/22 02:02:27;;;;;;;20.40;10.30;;;;;;;;;;5053137;28;20024;-45
2021/07/22 02:04:53;;;;;;;15.27;9.43;;;;;;;;;;5053088;28;20067;-45
2021/07/22 02:07:19;;;;;;;16.75;8.55;;;;;;;;;;5053098;28;20025;-46
2021/07/22 02:09:45;;;;;;;15.45;8.85;;;;;;;;;;5053073;28;20029;-46
2021/07/22 02:12:11;;;;;;;16.08;9.25;;;;;;;;;;5052848;28;20041;-47
2021/07/22 02:14:39;;;;;;;14.95;10.45;;;;;;;;;;5052830;28;20430;-47
2021/07/22 02:17:05;;;;;;;17.02;10.13;;;;;;;;;;5053125;28;20037;-47
2021/07/22 02:19:31;;;;;;;17.73;9.93;;;;;;;;;;5053079;28;20036;-47
2021/07/22 02:21:57;;;;;;;14.90;8.90;;;;;;;;;;5053300;28;20025;-47
2021/07/22 02:24:23;;;;;;;16.00;8.50;;;;;;;;;;5053390;28;20028;-46
2021/07/22 02:26:49;;;;;;;14.70;8.98;;;;;;;;;;5053233;28;20032;-47
2021/07/22 02:29:15;;;;;;;14.82;8.15;;;;;;;;;;5052979;28;20118;-44
2021/07/22 02:31:41;;;;;;;12.65;8.27;;;;;;;;;;5053026;28;20477;-47
2021/07/22 02:34:07;;;;;;;16.48;8.35;;;;;;;;;;5052977;28;20029;-47
2021/07/22 02:36:34;;;;;;;14.25;8.70;;;;;;;;;;5053055;28;20021;-47
2021/07/22 02:39:00;;;;;;;18.30;9.07;;;;;;;;;;5052982;28;20128;-45
2021/07/22 02:41:29;;;;;;;14.82;8.32;;;;;;;;;;5052920;28;20017;-45
2021/07/22 02:43:55;;;;;;;11.60;7.90;;;;;;;;;;5052546;28;20032;-45
2021/07/22 02:46:21;;;;;;;11.52;7.55;;;;;;;;;;5052668;28;20087;-47
2021/07/22 02:48:47;;;;;;;13.65;8.77;;;;;;;;;;5052676;28;20436;-45
2021/07/22 02:51:13;;;;;;;13.50;8.95;;;;;;;;;;5052695;28;20060;-48
2021/07/22 02:53:39;;;;;;;15.15;8.93;;;;;;;;;;5052872;28;20047;-46
2021/07/22 02:56:05;;;;;;;13.45;9.18;;;;;;;;;;5052907;28;20021;-45
2021/07/22 02:58:32;;;;;;;19.27;9.45;;;;;;;;;;5052641;28;20025;-47
2021/07/22 03:00:58;;;;;;;19.92;9.15;;;;;;;;;;5052748;28;20029;-47
2021/07/22 03:03:24;;;;;;;15.20;7.97;;;;;;;;;;5052698;28;20021;-44
2021/07/22 03:05:50;;;;;;;15.00;8.52;;;;;;;;;;5052874;28;20496;-48
2021/07/22 03:08:16;;;;;;;14.82;8.15;;;;;;;;;;5052724;28;20021;-47
2021/07/22 03:10:42;;;;;;;14.05;8.40;;;;;;;;;;5051290;28;20110;-48
2021/07/22 03:13:08;;;;;;;16.52;8.93;;;;;;;;;;5052395;28;20032;-47
2021/07/22 03:15:35;;;;;;;13.77;8.13;;;;;;;;;;5052239;28;20454;-47
2021/07/22 03:18:01;;;;;;;17.45;8.88;;;;;;;;;;5051259;28;20025;-48
2021/07/22 03:20:27;;;;;;;13.35;8.38;;;;;;;;;;5053220;28;20119;-48
2021/07/22 03:22:54;;;;;;;14.45;8.00;;;;;;;;;;5055951;28;20075;-48
2021/07/22 03:25:20;;;;;;;12.80;8.63;;;;;;;;;;5056172;28;20033;-46
2021/07/22 03:27:46;;;;;;;17.55;8.38;;;;;;;;;;5055927;28;20108;-47
2021/07/22 03:30:12;;;;;;;16.60;8.20;;;;;;;;;;5056136;28;20024;-47
2021/07/22 03:32:39;;;;;;;15.65;8.35;;;;;;;;;;5055734;28;20025;-47
2021/07/22 03:35:06;;;;;;;14.75;8.35;;;;;;;;;;5055827;28;20025;-47
2021/07/22 03:37:32;;;;;;;15.05;8.15;;;;;;;;;;5055742;28;20461;-46
2021/07/22 03:40:01;;;;;;;13.05;8.38;;;;;;;;;;5055554;28;20041;-46
2021/07/22 03:42:31;;;;;;;13.38;9.63;;;;;;;;;;5055757;28;20013;-46
2021/07/22 03:44:57;;;;;;;25.55;13.93;;;;;;;;;;5055722;28;20091;-44
2021/07/22 03:47:23;;;;;;;19.70;13.10;;;;;;;;;;5055884;28;20029;-44
2021/07/22 03:49:49;;;;;;;20.08;11.75;;;;;;;;;;5055569;28;20025;-45
2021/07/22 03:52:17;;;;;;;18.27;11.73;;;;;;;;;;5055536;28;20096;-45
2021/07/22 03:54:43;;;;;;;23.40;12.65;;;;;;;;;;5055485;28;20017;-45
2021/07/22 03:57:12;;;;;;;24.30;12.43;;;;;;;;;;5055491;28;20096;-44
2021/07/22 03:59:38;;;;;;;23.20;11.57;;;;;;;;;;5055407;28;20033;-45
2021/07/22 04:02:04;;;;;;;21.23;12.88;;;;;;;;;;5055305;28;20100;-43
2021/07/22 04:04:30;;;;;;;20.48;11.57;;;;;;;;;;5055665;28;20029;-44
2021/07/22 04:06:56;;;;;;;19.27;10.85;;;;;;;;;;5055432;28;20021;-45
2021/07/22 04:09:22;;;;;;;20.10;10.57;;;;;;;;;;5055350;28;20066;-55
2021/07/22 04:11:48;;;;;;;18.02;10.77;;;;;;;;;;5055471;28;20025;-44
2021/07/22 04:14:14;;;;;;;19.42;9.68;;;;;;;;;;5055219;28;20064;-44
2021/07/22 04:16:44;;;;;;;15.95;9.20;;;;;;;;;;5055008;28;20045;-44
2021/07/22 04:19:11;;;;;;;11.48;7.85;;;;;;;;;;5054883;28;20029;-44
2021/07/22 04:21:37;;;;;;;12.40;8.18;;;;;;;;;;5055304;28;20117;-44
2021/07/22 04:24:03;;;;;;;16.70;8.75;;;;;;;;;;5054883;28;20025;-44
2021/07/22 04:26:29;;;;;;;11.68;6.78;;;;;;;;;;5055088;28;20040;-44
2021/07/22 04:28:56;;;;;;;14.60;8.38;;;;;;;;;;5054684;28;20032;-44
2021/07/22 04:31:22;;;;;;;15.00;7.65;;;;;;;;;;5054261;28;20025;-44
2021/07/22 04:33:48;;;;;;;17.55;8.80;;;;;;;;;;5054404;28;20103;-45
2021/07/22 04:36:15;;;;;;;12.32;8.05;;;;;;;;;;5054994;28;20095;-44
2021/07/22 04:38:43;;;;;;;16.60;7.30;;;;;;;;;;5054579;28;20161;-44
2021/07/22 04:41:10;;;;;;;12.00;7.22;;;;;;;;;;5055177;28;20067;-44
2021/07/22 04:43:36;;;;;;;9.45;7.07;;;;;;;;;;5054706;28;20366;-44
2021/07/22 04:46:02;;;;;;;11.60;7.68;;;;;;;;;;5054544;28;20025;-44
2021/07/22 04:48:29;;;;;;;11.93;6.97;;;;;;;;;;5054583;28;20039;-44
2021/07/22 04:50:55;;;;;;;15.48;7.57;;;;;;;;;;5054656;28;20029;-44
2021/07/22 04:53:22;;;;;;;10.70;6.95;;;;;;;;;;5054718;28;20017;-44
2021/07/22 04:55:48;;;;;;;13.18;8.15;;;;;;;;;;5054583;28;20036;-44
2021/07/22 04:58:14;;;;;;;14.73;7.65;;;;;;;;;;5054380;28;20025;-44
2021/07/22 05:00:40;;;;;;;13.77;9.05;;;;;;;;;;5054399;28;20040;-44
2021/07/22 05:03:06;;;;;;;14.20;7.82;;;;;;;;;;5054229;28;20029;-45
2021/07/22 05:05:35;;;;;;;15.35;9.13;;;;;;;;;;5054367;28;20479;-44
2021/07/22 05:08:02;;;;;;;14.90;8.98;;;;;;;;;;5054250;28;20029;-44
2021/07/22 05:10:28;;;;;;;16.15;8.10;;;;;;;;;;5054181;28;20381;-44
2021/07/22 05:12:58;;;;;;;12.27;7.35;;;;;;;;;;5054019;28;20108;-44
2021/07/22 05:15:24;;;;;;;19.40;8.07;;;;;;;;;;5053873;28;20053;-44
2021/07/22 05:17:50;;;;;;;15.82;6.57;;;;;;;;;;5054275;28;20021;-44
2021/07/22 05:20:16;;;;;;;14.85;8.40;;;;;;;;;;5053854;28;20037;-43
2021/07/22 05:22:42;;;;;;;13.20;7.22;;;;;;;;;;5053768;28;20021;-44
2021/07/22 05:25:08;;;;;;;109.63;15.43;;;;;;;;;;5053906;28;20040;-44
2021/07/22 05:27:34;;;;;;;43.70;9.07;;;;;;;;;;5054112;28;20032;-44
2021/07/22 05:30:00;;;;;;;108.63;12.95;;;;;;;;;;5054039;28;20025;-44
2021/07/22 05:32:26;;;;;;;77.95;10.10;;;;;;;;;;5053715;28;20014;-44
2021/07/22 05:34:52;;;;;;;16.15;6.90;;;;;;;;;;5053774;28;20389;-45
2021/07/22 05:37:19;;;;;;;13.43;6.95;;;;;;;;;;5053833;28;20096;-44
2021/07/22 05:39:45;;;;;;;12.10;6.13;;;;;;;;;;5053500;28;20040;-44
2021/07/22 05:42:11;;;;;;;11.48;5.80;;;;;;;;;;5053570;28;20116;-44
2021/07/22 05:44:37;;;;;;;9.68;5.32;;;;;;;;;;5053118;28;20473;-45
2021/07/22 05:47:03;;;;;;;16.67;5.85;;;;;;;;;;5053449;28;20032;-44
2021/07/22 05:49:29;;;;;;;10.07;5.53;;;;;;;;;;5053398;28;20548;-45
2021/07/22 05:51:55;;;;;;;8.98;5.85;;;;;;;;;;5053404;28;20026;-44
2021/07/22 05:54:21;;;;;;;10.35;5.80;;;;;;;;;;5053533;28;20025;-45
2021/07/22 05:56:47;;;;;;;14.68;7.57;;;;;;;;;;5053447;28;20476;-45
2021/07/22 05:59:15;;;;;;;12.23;5.72;;;;;;;;;;5053415;28;20044;-45
2021/07/22 06:01:41;;;;;;;11.60;4.70;;;;;;;;;;5053729;28;20490;-46
2021/07/22 06:04:07;;;;;;;7.97;4.60;;;;;;;;;;5053383;28;20060;-46
2021/07/22 06:06:37;;;;;;;7.10;4.70;;;;;;;;;;5053425;28;20071;-45
2021/07/22 06:09:03;;;;;;;9.57;4.93;;;;;;;;;;5053316;28;20052;-43
2021/07/22 06:11:30;;;;;;;12.10;4.20;;;;;;;;;;5053609;28;20025;-45
2021/07/22 06:13:56;;;;;;;6.47;3.65;;;;;;;;;;5053261;28;20032;-44
2021/07/22 06:16:22;;;;;;;8.95;3.80;;;;;;;;;;5053119;28;20049;-44
2021/07/22 06:18:48;;;;;;;5.55;3.55;;;;;;;;;;5053094;28;20032;-44
2021/07/22 06:21:15;;;;;;;6.32;3.60;;;;;;;;;;5053100;28;20040;-44
2021/07/22 06:23:42;;;;;;;14.43;5.05;;;;;;;;;;5053173;28;20017;-44
2021/07/22 06:26:08;;;;;;;7.57;4.13;;;;;;;;;;5053075;28;20496;-44
2021/07/22 06:28:36;;;;;;;9.57;3.58;;;;;;;;;;5053148;28;20029;-44
2021/07/22 06:31:02;;;;;;;11.20;5.85;;;;;;;;;;5053223;28;20025;-44
2021/07/22 06:33:28;;;;;;;13.02;5.65;;;;;;;;;;5052927;28;20476;-44
2021/07/22 06:35:54;;;;;;;7.60;4.35;;;;;;;;;;5052926;28;20056;-44
2021/07/22 06:38:20;;;;;;;4.65;3.42;;;;;;;;;;5052725;28;20021;-44
2021/07/22 06:40:46;;;;;;;8.73;4.18;;;;;;;;;;5052891;28;20104;-44
2021/07/22 06:43:13;;;;;;;9.40;4.97;;;;;;;;;;5052778;28;20465;-45
2021/07/22 06:45:39;;;;;;;9.52;5.07;;;;;;;;;;5052562;28;20060;-44
2021/07/22 06:48:06;;;;;;;9.85;5.28;;;;;;;;;;5052980;28;20423;-45
2021/07/22 06:50:32;;;;;;;13.30;5.97;;;;;;;;;;5052803;28;20063;-45
2021/07/22 06:52:59;;;;;;;13.35;5.25;;;;;;;;;;5052665;28;20090;-43
2021/07/22 06:55:25;;;;;;;11.02;5.53;;;;;;;;;;5053653;28;20032;-44
2021/07/22 06:57:51;;;;;;;7.93;4.50;;;;;;;;;;5056659;28;20098;-43
2021/07/22 07:00:17;;;;;;;7.20;4.40;;;;;;;;;;5056460;28;20138;-44
2021/07/22 07:02:45;;;;;;;6.22;4.13;;;;;;;;;;5056479;28;20024;-43
2021/07/22 07:05:11;;;;;;;10.55;6.18;;;;;;;;;;5056464;28;20043;-44
2021/07/22 07:07:37;;;;;;;7.82;4.72;;;;;;;;;;5056148;28;20437;-44
2021/07/22 07:10:04;;;;;;;6.38;3.85;;;;;;;;;;5056270;28;20028;-43
2021/07/22 07:12:30;;;;;;;7.10;4.15;;;;;;;;;;5056340;28;20108;-44
2021/07/22 07:14:56;;;;;;;5.07;3.58;;;;;;;;;;5055930;28;20045;-43
2021/07/22 07:17:22;;;;;;;5.20;3.78;;;;;;;;;;5056181;28;20071;-45
2021/07/22 07:19:48;;;;;;;4.72;3.40;;;;;;;;;;5056041;28;20036;-44
2021/07/22 07:22:18;;;;;;;8.55;4.07;;;;;;;;;;5056127;28;20144;-44
2021/07/22 07:24:44;;;;;;;5.93;3.30;;;;;;;;;;5056353;28;20049;-44
2021/07/22 07:27:10;;;;;;;6.50;3.38;;;;;;;;;;5056274;28;20029;-44
2021/07/22 07:29:36;;;;;;;10.65;3.47;;;;;;;;;;5056107;28;20036;-44
2021/07/22 07:32:02;;;;;;;6.28;3.85;;;;;;;;;;5056028;28;20512;-46
2021/07/22 07:34:28;;;;;;;6.93;2.75;;;;;;;;;;5055826;28;20033;-43
2021/07/22 07:36:56;;;;;;;49.38;37.03;;;;;;;;;;5055786;28;20028;-44
2021/07/22 07:39:22;;;;;;;22.42;13.82;;;;;;;;;;5055506;28;20029;-43
2021/07/22 07:41:49;;;;;;;40.03;33.28;;;;;;;;;;5055638;28;20051;-44
2021/07/22 07:44:15;;;;;;;34.25;25.38;;;;;;;;;;5055429;28;20032;-45
2021/07/22 07:46:41;;;;;;;6.78;4.50;;;;;;;;;;5055459;28;20510;-45
2021/07/22 07:49:08;;;;;;;4.50;3.47;;;;;;;;;;5055202;28;20246;-44
2021/07/22 07:51:34;;;;;;;8.40;3.47;;;;;;;;;;5055189;28;20485;-45
2021/07/22 07:54:00;;;;;;;9.93;3.30;;;;;;;;;;5055351;28;20023;-44
2021/07/22 07:56:26;;;;;;;5.85;3.30;;;;;;;;;;5054889;28;20029;-43
2021/07/22 07:58:52;;;;;;;9.38;6.10;;;;;;;;;;5054535;28;20017;-44
2021/07/22 08:01:19;;;;;;;6.38;3.42;;;;;;;;;;5054267;28;20430;-45
2021/07/22 08:03:45;;;;;;;6.68;4.82;;;;;;;;;;5051970;28;20049;-43
2021/07/22 08:06:11;;;;;;;6.05;3.10;;;;;;;;;;5054229;28;20029;-44
2021/07/22 08:08:37;;;;;;;5.30;3.10;;;;;;;;;;5053342;28;20021;-45
2021/07/22 08:11:03;;;;;;;6.63;2.72;;;;;;;;;;5054624;28;20083;-45
2021/07/22 08:13:29;;;;;;;6.82;3.08;;;;;;;;;;5054499;28;20591;-45
2021/07/22 08:15:55;;;;;;;12.85;8.68;;;;;;;;;;5053933;28;20531;-45
2021/07/22 08:18:21;;;;;;;12.40;7.10;;;;;;;;;;5054332;28;20033;-44
2021/07/22 08:20:47;;;;;;;8.35;6.38;;;;;;;;;;5054409;28;20029;-44
2021/07/22 08:23:13;;;;;;;4.95;3.20;;;;;;;;;;5054745;28;20477;-44
2021/07/22 08:25:39;;;;;;;6.45;3.53;;;;;;;;;;5054792;28;20036;-44
2021/07/22 08:28:06;;;;;;;6.88;2.97;;;;;;;;;;5054751;28;20025;-44
2021/07/22 08:30:33;;;;;;;4.43;2.70;;;;;;;;;;5054683;28;20434;-44
2021/07/22 08:33:01;;;;;;;4.20;2.85;;;;;;;;;;5054567;28;20025;-44
2021/07/22 08:35:27;;;;;;;3.33;2.75;;;;;;;;;;5054511;28;20528;-45
2021/07/22 08:37:53;;;;;;;8.82;3.75;;;;;;;;;;5050941;28;20029;-44
2021/07/22 08:40:19;;;;;;;4.97;3.30;;;;;;;;;;5025728;28;20041;-42
2021/07/22 08:42:47;;;;;;;34.78;27.02;;;;;;;;;;5022571;28;20503;-45
2021/07/22 08:45:14;;;;;;;44.10;30.50;;;;;;;;;;5022396;28;20056;-44
2021/07/22 08:47:44;;;;;;;8.40;5.28;;;;;;;;;;5023172;28;20143;-45
2021/07/22 08:50:12;;;;;;;9.20;4.47;;;;;;;;;;5022473;28;20040;-44
2021/07/22 08:52:38;;;;;;;5.25;2.83;;;;;;;;;;5022640;28;20090;-43
2021/07/22 08:55:05;;;;;;;2.92;2.63;;;;;;;;;;5022528;28;20782;-43
2021/07/22 08:57:33;;;;;;;3.85;2.67;;;;;;;;;;5022376;28;20026;-43
2021/07/22 09:00:00;;;;;;;10.82;5.30;;;;;;;;;;5022024;28;20674;-43
2021/07/22 09:02:32;;;;;;;25.15;12.07;;;;;;;;;;5022624;28;20035;-42
2021/07/22 09:05:00;;;;;;;13.90;8.82;;;;;;;;;;5021763;28;20029;-42
2021/07/22 09:07:27;;;;;;;13.07;7.60;;;;;;;;;;5021758;28;20064;-43
2021/07/22 09:10:05;;;;;;;9.02;6.15;;;;;;;;;;5022088;28;20068;-43
2021/07/22 09:12:35;;;;;;;6.15;4.45;;;;;;;;;;5022375;28;20021;-42
2021/07/22 09:15:02;;;;;;;24.43;18.07;;;;;;;;;;5022550;28;20103;-43
2021/07/22 09:17:28;;;;;;;4.78;3.42;;;;;;;;;;5022021;28;20273;-42
2021/07/22 09:19:54;;;;;;;3.10;2.50;;;;;;;;;;5021675;28;20029;-42
2021/07/22 09:22:34;;;;;;;6.40;2.85;;;;;;;;;;5022032;28;20032;-42
2021/07/22 09:25:00;;;;;;;;;;;;;;;;;;5023720;28;20065;-42
2021/07/22 09:27:42;;;;;;;3.92;3.13;;;;;;;;;;5021904;28;19919;-41
2021/07/22 09:30:11;;;;;;;18.60;14.20;;;;;;;;;;5023251;28;20047;-42
2021/07/22 09:32:38;;;;;;;5.55;3.08;;;;;;;;;;5021600;28;20029;-42
2021/07/22 09:35:23;;;;;;;4.53;3.45;;;;;;;;;;5021794;28;20021;-43
2021/07/22 09:37:50;;;;;;;8.18;4.03;;;;;;;;;;5023030;28;20469;-43
2021/07/22 09:40:36;;;;;;;4.95;2.90;;;;;;;;;;5021533;28;20041;-41
2021/07/22 09:43:02;;;;;;;21.20;15.43;;;;;;;;;;5021493;28;20021;-41
2021/07/22 09:45:37;;;;;;;395.38;337.92;;;;;;;;;;5021266;28;20056;-41
2021/07/22 09:48:07;;;;;;;84.57;64.93;;;;;;;;;;5021456;28;20037;-43
2021/07/22 09:50:38;;;;;;;53.37;39.97;;;;;;;;;;5022356;28;20029;-42
2021/07/22 09:53:09;;;;;;;14.27;10.00;;;;;;;;;;5022310;28;20055;-42
2021/07/22 09:55:35;;;;;;;11.75;6.20;;;;;;;;;;5021285;28;20116;-43
2021/07/22 09:58:02;;;;;;;9.18;6.07;;;;;;;;;;5021051;28;20029;-43
2021/07/22 10:00:30;;;;;;;40.55;33.33;;;;;;;;;;5022089;28;20473;-43
2021/07/22 10:02:57;;;;;;;24.95;16.10;;;;;;;;;;5020976;28;20396;-47
2021/07/22 10:05:25;;;;;;;21.27;15.52;;;;;;;;;;5022215;28;20025;-47
2021/07/22 10:07:52;;;;;;;6.68;5.07;;;;;;;;;;5021099;28;20014;-44
2021/07/22 10:10:18;;;;;;;26.83;19.58;;;;;;;;;;5020556;28;20492;-42
2021/07/22 10:13:05;;;;;;;8.23;3.25;;;;;;;;;;5021084;28;20087;-43
2021/07/22 10:15:36;;;;;;;7.70;3.00;;;;;;;;;;5020430;28;20064;-43
2021/07/22 10:18:04;;;;;;;4.65;3.13;;;;;;;;;;5020976;28;20106;-44
2021/07/22 10:20:31;;;;;;;18.35;12.15;;;;;;;;;;5020893;28;20030;-44
2021/07/22 10:22:58;;;;;;;13.15;9.00;;;;;;;;;;5021140;28;20048;-43
2021/07/22 10:25:24;;;;;;;42.33;28.27;;;;;;;;;;5021130;28;20033;-43
2021/07/22 10:27:52;;;;;;;7.30;3.70;;;;;;;;;;5021049;28;20026;-44
2021/07/22 10:30:19;;;;;;;11.68;7.22;;;;;;;;;;5023326;28;20068;-47
2021/07/22 10:32:54;;;;;;;77.70;37.83;;;;;;;;;;5024898;28;20014;-42
2021/07/22 10:35:31;;;;;;;68.07;18.05;;;;;;;;;;5025657;28;20753;-43
2021/07/22 10:38:12;;;;;;;50.75;10.48;;;;;;;;;;5025133;28;20018;-42
2021/07/22 10:40:45;;;;;;;10.02;3.53;;;;;;;;;;5024964;28;20037;-44
2021/07/22 10:43:30;;;;;;;10.27;3.22;;;;;;;;;;5048173;28;20027;-44
2021/07/22 10:45:56;;;;;;;61.67;16.50;;;;;;;;;;5076747;28;20373;-44
2021/07/22 10:48:28;;;;;;;12.98;6.30;;;;;;;;;;5076639;28;20027;-41
2021/07/22 10:50:54;;;;;;;184.88;143.57;;;;;;;;;;5076745;28;20024;-43
2021/07/22 10:53:39;;;;;;;19.55;12.88;;;;;;;;;;5076537;28;20025;-43
2021/07/22 10:56:05;;;;;;;10.77;4.93;;;;;;;;;;5076713;28;20430;-46
2021/07/22 10:58:34;;;;;;;5.55;3.75;;;;;;;;;;5076671;28;20369;-46
2021/07/22 11:01:03;;;;;;;8.02;4.38;;;;;;;;;;5076649;28;20037;-45
2021/07/22 11:03:35;;;;;;;10.32;4.68;;;;;;;;;;5076557;28;20146;-45
2021/07/22 11:06:02;;;;;;;34.90;13.27;;;;;;;;;;5076767;28;20024;-46
2021/07/22 11:08:29;;;;;;;14.23;8.23;;;;;;;;;;5076627;28;20021;-45
2021/07/22 11:10:55;;;;;;;11.90;5.93;;;;;;;;;;5076510;28;20029;-45
2021/07/22 11:13:33;;;;;;;8.93;4.05;;;;;;;;;;5076321;28;20056;-46
2021/07/22 11:16:00;;;;;;;8.70;3.78;;;;;;;;;;5076185;28;20139;-45
2021/07/22 11:21:08;;;;;;;6.00;4.65;;;;;;;;;;5076081;28;20044;-44
2021/07/22 11:23:34;;;;;;;8.02;4.32;;;;;;;;;;5076457;28;20017;-44
2021/07/22 11:26:00;;;;;;;4.85;3.30;;;;;;;;;;5076139;28;20078;-46
2021/07/22 11:28:27;;;;;;;6.00;3.45;;;;;;;;;;5076121;28;20051;-45
2021/07/22 11:31:08;;;;;;;4.85;3.65;;;;;;;;;;5076353;28;20383;-46
2021/07/22 11:33:38;;;;;;;3.40;2.83;;;;;;;;;;5075957;28;20025;-45
2021/07/22 11:36:06;;;;;;;5.35;3.60;;;;;;;;;;5076210;28;20054;-45
2021/07/22 11:38:33;;;;;;;7.20;3.55;;;;;;;;;;5076006;28;20055;-44
2021/07/22 11:40:59;;;;;;;5.47;3.80;;;;;;;;;;5075611;28;20452;-45
2021/07/22 11:43:32;;;;;;;5.85;4.38;;;;;;;;;;5076063;28;20032;-46
2021/07/22 11:45:58;;;;;;;6.65;3.60;;;;;;;;;;5075938;28;20036;-45
2021/07/22 11:48:24;;;;;;;7.93;3.67;;;;;;;;;;5076088;28;20027;-46
2021/07/22 11:51:10;;;;;;;7.28;3.58;;;;;;;;;;5075715;28;20020;-45
2021/07/22 11:53:37;;;;;;;5.05;3.78;;;;;;;;;;5075837;28;20472;-46
2021/07/22 11:56:11;;;;;;;6.05;4.22;;;;;;;;;;5075593;28;20031;-46
2021/07/22 11:58:38;;;;;;;8.32;6.13;;;;;;;;;;5075732;28;20350;-45
2021/07/22 12:01:05;;;;;;;6.55;4.85;;;;;;;;;;5075580;28;20439;-45
2021/07/22 12:03:31;;;;;;;6.80;3.72;;;;;;;;;;5075621;28;20048;-46
2021/07/22 12:05:57;;;;;;;6.55;3.90;;;;;;;;;;5075604;28;20107;-45
2021/07/22 12:08:23;;;;;;;4.82;3.70;;;;;;;;;;5075459;28;20028;-45
2021/07/22 12:10:50;;;;;;;8.60;4.28;;;;;;;;;;5075862;28;20622;-47
2021/07/22 12:13:16;;;;;;;8.73;4.13;;;;;;;;;;5075310;28;20028;-45
2021/07/22 12:15:44;;;;;;;7.63;3.92;;;;;;;;;;5075148;28;20102;-46
2021/07/22 12:18:11;;;;;;;7.20;4.32;;;;;;;;;;5075213;28;20040;-46
2021/07/22 12:20:38;;;;;;;5.45;4.18;;;;;;;;;;5075006;28;20033;-46
2021/07/22 12:23:22;;;;;;;6.57;4.50;;;;;;;;;;5075065;28;20105;-45
2021/07/22 12:25:58;;;;;;;6.85;3.83;;;;;;;;;;5075143;28;20075;-45
2021/07/22 12:28:24;;;;;;;8.45;4.05;;;;;;;;;;5075140;28;20404;-46
2021/07/22 12:30:50;;;;;;;11.73;4.40;;;;;;;;;;5075121;28;20064;-47
2021/07/22 12:33:24;;;;;;;10.88;7.50;;;;;;;;;;5074889;28;20039;-46
2021/07/22 12:35:50;;;;;;;6.68;4.20;;;;;;;;;;5075002;28;20043;-46
2021/07/22 12:38:16;;;;;;;7.35;4.40;;;;;;;;;;5075056;28;20024;-45
2021/07/22 12:40:43;;;;;;;7.68;4.15;;;;;;;;;;5074820;28;20041;-46
2021/07/22 12:43:10;;;;;;;7.68;3.80;;;;;;;;;;5074776;28;20025;-46
2021/07/22 12:45:36;;;;;;;7.95;4.13;;;;;;;;;;5074988;28;20115;-45
2021/07/22 12:48:03;;;;;;;12.40;8.05;;;;;;;;;;5074891;28;20024;-46
2021/07/22 12:50:32;;;;;;;8.25;4.22;;;;;;;;;;5074498;28;20024;-46
2021/07/22 12:53:05;;;;;;;6.00;4.15;;;;;;;;;;5073881;28;20537;-45
2021/07/22 12:55:32;;;;;;;6.47;4.57;;;;;;;;;;5074490;28;20112;-45
2021/07/22 12:57:59;;;;;;;7.35;4.15;;;;;;;;;;5074699;28;20016;-46
2021/07/22 13:00:25;;;;;;;8.18;3.88;;;;;;;;;;5074487;28;20043;-45
2021/07/22 13:02:52;;;;;;;5.00;4.10;;;;;;;;;;5074600;28;20016;-45
2021/07/22 13:05:18;;;;;;;8.38;4.85;;;;;;;;;;5074351;28;20021;-44
2021/07/22 13:07:44;;;;;;;7.30;4.30;;;;;;;;;;5074359;28;20027;-45
2021/07/22 13:10:11;;;;;;;6.45;4.22;;;;;;;;;;5074238;28;20029;-45
2021/07/22 13:12:37;;;;;;;8.75;3.67;;;;;;;;;;5074314;28;20031;-45
2021/07/22 13:15:03;;;;;;;6.93;4.18;;;;;;;;;;5073721;28;20040;-46
2021/07/22 13:17:29;;;;;;;7.00;4.05;;;;;;;;;;5074027;28;20031;-46
2021/07/22 13:19:55;;;;;;;11.55;4.57;;;;;;;;;;5074006;28;20040;-47
2021/07/22 13:22:21;;;;;;;5.72;3.72;;;;;;;;;;5073919;28;20150;-45
2021/07/22 13:24:50;;;;;;;11.38;4.47;;;;;;;;;;5073866;28;20078;-44
2021/07/22 13:27:17;;;;;;;4.68;3.70;;;;;;;;;;5074445;28;20479;-46
2021/07/22 13:29:43;;;;;;;5.68;3.63;;;;;;;;;;5073938;28;20377;-46
2021/07/22 13:32:10;;;;;;;7.47;4.50;;;;;;;;;;5073666;28;20017;-46
2021/07/22 13:34:37;;;;;;;8.50;4.55;;;;;;;;;;5073678;28;20046;-46
2021/07/22 13:37:03;;;;;;;8.77;4.55;;;;;;;;;;5073727;28;20423;-45
2021/07/22 13:39:30;;;;;;;10.27;4.18;;;;;;;;;;5073523;28;20036;-46
2021/07/22 13:41:56;;;;;;;8.82;4.13;;;;;;;;;;5073815;28;20480;-46
2021/07/22 13:44:22;;;;;;;5.68;3.90;;;;;;;;;;5073623;28;20093;-46
2021/07/22 13:46:48;;;;;;;9.70;4.90;;;;;;;;;;5073472;28;20028;-45
2021/07/22 13:49:14;;;;;;;9.35;3.75;;;;;;;;;;5073746;28;20024;-46
2021/07/22 13:51:40;;;;;;;6.85;5.38;;;;;;;;;;5073487;28;20050;-44
2021/07/22 13:54:07;;;;;;;7.85;4.35;;;;;;;;;;5073386;28;20024;-46
2021/07/22 13:56:33;;;;;;;11.05;3.60;;;;;;;;;;5073420;28;20090;-46
2021/07/22 13:58:59;;;;;;;5.65;4.32;;;;;;;;;;5073466;28;20016;-46
2021/07/22 14:01:25;;;;;;;6.28;4.07;;;;;;;;;;5073311;28;20571;-46
2021/07/22 14:03:51;;;;;;;9.20;4.45;;;;;;;;;;5073045;28;20465;-46
2021/07/22 14:06:17;;;;;;;4.82;3.90;;;;;;;;;;5073192;28;20021;-45
2021/07/22 14:08:45;;;;;;;5.53;3.72;;;;;;;;;;5073440;28;20502;-46
2021/07/22 14:11:11;;;;;;;7.80;4.47;;;;;;;;;;5073481;28;20025;-46
2021/07/22 14:13:37;;;;;;;5.68;4.18;;;;;;;;;;5073182;28;20017;-46
2021/07/22 14:16:04;;;;;;;6.70;4.00;;;;;;;;;;5072990;28;20052;-46
2021/07/22 14:18:30;;;;;;;5.38;4.28;;;;;;;;;;5073250;28;20413;-45
2021/07/22 14:20:56;;;;;;;6.93;3.88;;;;;;;;;;5071675;28;20052;-45
2021/07/22 14:23:22;;;;;;;5.78;4.03;;;;;;;;;;5073365;28;20028;-46
2021/07/22 14:25:49;;;;;;;9.48;4.55;;;;;;;;;;5073337;28;20048;-44
2021/07/22 14:28:15;;;;;;;8.07;4.53;;;;;;;;;;5073275;28;20024;-46
2021/07/22 14:30:42;;;;;;;8.50;4.63;;;;;;;;;;5073061;28;20100;-46
2021/07/22 14:33:09;;;;;;;7.78;4.90;;;;;;;;;;5072936;28;20040;-46
2021/07/22 14:35:35;;;;;;;8.45;4.38;;;;;;;;;;5073119;28;20021;-46